x

8454049 - Quonset Point, Ri (qptr1) Weather Station

7:54 - Sun 3rd May 2015 All times are EDT. -4 hours from GMT.

  • Wind
    13mph, 14mph gusts
  • Sea Temp 49°f
  • Luft Temp 51°f
  • Sea Pressure 1020mb
  • 8454049 - Quonset Point, Ri
  • 8454049 - Quonset Point, Ri

More Historic Weather Station data

Upgrade to MSW Pro to gain access to the past 30 days of data for over 8000 Wavebouys and Weather Stations around the globe.

Join Pro

Comparision Forecast

View Surf forecast
   
So 05/03 7:54 13 14 mph 1020mb 49f 51f
7:48 10 14 mph 1020mb 49f 49f
7:42 13 16 mph 1020mb 49f 48f
7:36 14 15 mph 1020mb 49f 48f
7:30 14 16 mph 1020mb 49f 48f
7:24 15 17 mph 1019.9mb 49f 49f
7:18 15 16 mph 1019.8mb 49f 49f
7:12 15 17 mph 1019.8mb 50f 49f
7:06 15 17 mph 1019.7mb 50f 49f
7:00 15 17 mph 1019.7mb 50f 49f
6:54 15 18 mph 1019.5mb 50f 49f
6:48 16 18 mph 1019.5mb 50f 49f
6:42 16 18 mph 1019.4mb 50f 49f
6:36 15 17 mph 1019.4mb 50f 49f
6:30 15 17 mph 1019.5mb 50f 49f
6:24 16 20 mph 1019.4mb 50f 49f
6:18 16 18 mph 1019.3mb 50f 49f
6:12 17 20 mph 1019.2mb 50f 50f
6:06 17 21 mph 1019.2mb 50f 49f
6:00 20 21 mph 1019.1mb 50f 49f
5:54 17 20 mph 1019.2mb 50f 49f
5:48 17 21 mph 1019.3mb 50f 49f
5:42 18 21 mph 1019.1mb 50f 49f
5:36 17 21 mph 1019.1mb 50f 49f
5:30 20 22 mph 1019.1mb 50f 49f
5:24 21 23 mph 1019mb 50f 49f
5:18 21 24 mph 1018.9mb 50f 49f
5:12 21 24 mph 1018.8mb 50f 49f
5:06 21 24 mph 1018.8mb 50f 49f
5:00 22 25 mph 1018.7mb 50f 49f
4:54 22 24 mph 1018.7mb 50f 49f
4:48 22 26 mph 1018.7mb 50f 49f
4:42 23 26 mph 1018.6mb 50f 49f
4:36 23 25 mph 1018.7mb 50f 49f
4:30 23 26 mph 1018.7mb 50f 49f
4:24 22 25 mph 1018.6mb 50f 49f
4:18 24 28 mph 1018.5mb 50f 49f
4:12 23 26 mph 1018.5mb 50f 49f
4:06 23 28 mph 1018.6mb 50f 49f
4:00 24 28 mph 1018.6mb 50f 49f
3:54 24 26 mph 1018.7mb 50f 49f
3:48 25 28 mph 1018.7mb 50f 49f
3:42 25 28 mph 1018.7mb 50f 49f
3:36 23 26 mph 1018.8mb 50f 49f
3:30 23 28 mph 1018.6mb 49f 49f
3:24 23 26 mph 1018.6mb 49f 49f
3:18 26 29 mph 1018.4mb 49f 49f
3:12 25 29 mph 1018.4mb 49f 49f
3:06 26 29 mph 1018.4mb 49f 49f
3:00 26 29 mph 1018.3mb 49f 49f
2:54 25 29 mph 1018.4mb 49f 49f
2:48 25 29 mph 1018.4mb 49f 49f
2:42 25 29 mph 1018.4mb 49f 49f
2:36 25 29 mph 1018.4mb 50f 49f
2:30 26 29 mph 1018.3mb 49f 49f
2:24 25 28 mph 1018.3mb 49f 49f
2:18 25 28 mph 1018.2mb 49f 49f
2:12 25 28 mph 1018.2mb 49f 49f
2:06 25 29 mph 1018.2mb 49f 49f
2:00 24 28 mph 1018.2mb 49f 49f
1:54 25 28 mph 1018.2mb 49f 49f
1:48 24 26 mph 1018.1mb 49f 50f
1:42 22 26 mph 1018.1mb 49f 50f
1:36 23 26 mph 1018mb 49f 50f
1:30 23 26 mph 1018mb 49f 50f
1:24 23 26 mph 1018mb 49f 50f
1:18 22 24 mph 1017.9mb 49f 50f
1:12 23 25 mph 1017.9mb 49f 50f
1:06 22 25 mph 1017.8mb 49f 50f
1:00 22 25 mph 1017.8mb 49f 50f
12:54 23 26 mph 1017.8mb 49f 50f
12:48 24 26 mph 1017.8mb 49f 51f
12:42 23 25 mph 1017.8mb 49f 51f
12:36 24 26 mph 1017.8mb 49f 51f
12:30 23 25 mph 1017.9mb 49f 52f
12:24 22 24 mph 1018mb 49f 52f
12:18 21 23 mph 1018.1mb 48f 52f
12:12 21 23 mph 1018mb 48f 52f
12:06 21 23 mph 1018mb 48f 52f
12:00 21 23 mph 1018mb 48f 52f
11:54 21 22 mph 1018mb 48f 52f
11:48 20 22 mph 1018mb 48f 52f
11:42 20 22 mph 1017.9mb 47f 51f
11:36 18 20 mph 1017.9mb 47f 52f
11:30 16 18 mph 1018mb 47f 52f
11:24 15 17 mph 1017.9mb 47f 53f
11:18 17 18 mph 1017.9mb 47f 53f
11:12 17 20 mph 1017.9mb 47f 53f
11:06 16 17 mph 1017.9mb 47f 53f
11:00 16 18 mph 1017.9mb 47f 53f
10:54 16 17 mph 1017.9mb 47f 52f
10:48 15 16 mph 1017.9mb 47f 52f
10:42 11 14 mph 1018mb 47f 53f
10:36 6 8 mph 1018.1mb 47f 54f
10:30 5 6 mph 1018mb 47f 55f
10:24 6
mph
1018mb 47f 55f
10:18 6 7 mph 1018mb 47f 55f
10:12 6 7 mph 1017.9mb 47f 54f
10:06 6 7 mph 1017.9mb 47f 53f
10:00 3 5 mph 1017.9mb 48f 55f
9:54 3 5 mph 1017.9mb 48f 56f
9:48 5 6 mph 1017.8mb 48f 56f
9:42 5 6 mph 1017.9mb 48f 55f
9:36 6
mph
1017.9mb 48f 55f
9:30 3 6 mph 1017.9mb 48f 55f
9:24 6 7 mph 1018mb 48f 55f
9:18 6 9 mph 1018mb 48f 53f
9:12 8 11 mph 1018mb 48f 53f
9:06 11 15 mph 1018mb 49f 52f
9:00 10 13 mph 1018mb 49f 52f
8:54 11 14 mph 1018.1mb 49f 52f
8:48 13 14 mph 1018.1mb 49f 52f
8:42 10 13 mph 1018.1mb 49f 52f
8:36 10 13 mph 1018.1mb 49f 52f
8:30 11 17 mph 1018mb 49f 52f
8:24 14 15 mph 1018mb 49f 51f
8:18 11 14 mph 1018mb 49f 51f
8:12 10 11 mph 1017.9mb 49f 51f
8:06 9 13 mph 1017.9mb 49f 51f
8:00 11 14 mph 1017.8mb 49f 51f
7:54 10 13 mph 1017.7mb 49f 51f
7:48 10 13 mph 1017.7mb 49f 51f
7:42 10 13 mph 1017.6mb 49f 51f
7:36 10 13 mph 1017.6mb 49f 51f
7:30 11 13 mph 1017.6mb 49f 50f
7:24 11 15 mph 1017.5mb 49f 50f
7:18 14 15 mph 1017.4mb 49f 50f
7:12 13 14 mph 1017.4mb 49f 50f
7:06 11 14 mph 1017.4mb 49f 50f
7:00 10 11 mph 1017.4mb 49f 49f
6:54 10
mph
1017.3mb 49f 49f
6:48 9 11 mph 1017.3mb 49f 49f
6:42 8 9 mph 1017.2mb 49f 49f
6:36 7 9 mph 1017.1mb 49f 49f
6:30 7 9 mph 1017.1mb 49f 48f
6:24 7 8 mph 1017mb 49f 48f
6:18 7 8 mph 1016.9mb 49f 48f
6:12 7 9 mph 1017mb 49f 48f
6:06 7 8 mph 1017mb 49f 47f
6:00 8 9 mph 1016.9mb 49f 47f
5:54 8 10 mph 1016.8mb 49f 48f
5:48 9 10 mph 1016.8mb 49f 47f
5:42 8 9 mph 1016.7mb 49f 47f
5:36 7 9 mph 1016.8mb 49f 47f
5:30 8 9 mph 1016.7mb 49f 47f
5:24 7 8 mph 1016.7mb 49f 47f
5:18 6 7 mph 1016.6mb 50f 46f
5:12 6 7 mph 1016.6mb 50f 46f
5:06 5 6 mph 1016.6mb 50f 46f
5:00 5 7 mph 1016.6mb 50f 46f
4:54 6 7 mph 1016.5mb 50f 46f
4:48 6 7 mph 1016.5mb 50f 46f
4:42 6 8 mph 1016.5mb 50f 46f
4:36 7 9 mph 1016.4mb 50f 46f
4:30 7 9 mph 1016.4mb 50f 46f
4:24 7 8 mph 1016.4mb 50f 46f
4:18 7 9 mph 1016.5mb 50f 46f
4:12 8 9 mph 1016.4mb 51f 46f
4:06 8 9 mph 1016.4mb 51f 46f
4:00 7
mph
1016.3mb 51f 46f
3:54 6 8 mph 1016.3mb 51f 46f
3:48 6 7 mph 1016.3mb 51f 46f
3:42 6 7 mph 1016.3mb 51f 45f
3:36 7 8 mph 1016.2mb 51f 45f
3:30 6 7 mph 1016.2mb 51f 46f
3:24 5 6 mph 1016.2mb 51f 46f
3:18 6
mph
1016.3mb 51f 46f
3:12 5 7 mph 1016.3mb 51f 46f
3:06 7 9 mph 1016.2mb 51f 46f
3:00 8 9 mph 1016.2mb 51f 46f
2:54 8 9 mph 1016.2mb 51f 46f
2:48  -  mph - - 46f
2:42  -  mph - - 46f
2:36  -  mph - - 46f
2:30 8 9 mph 1016.4mb 51f 46f
2:24 8 10 mph 1016.4mb 51f 46f
2:18 9 10 mph 1016.4mb 51f 46f
2:12 9 10 mph 1016.5mb 51f 46f
2:06 9 10 mph 1016.4mb 51f 46f
2:00 8 10 mph 1016.3mb 51f 46f
1:54 8 9 mph 1016.4mb 51f 46f
1:48 7 8 mph 1016.5mb 51f 46f
1:42 7 8 mph 1016.4mb 51f 46f
1:36 7 8 mph 1016.5mb 51f 46f
1:30 6 8 mph 1016.5mb 51f 46f
1:24 7 8 mph 1016.5mb 51f 45f
1:18 7 8 mph 1016.5mb 51f 45f
1:12 6 7 mph 1016.5mb 51f 45f
1:06 6 8 mph 1016.5mb 51f 45f
1:00 7 9 mph 1016.6mb 51f 45f
12:54 8 9 mph 1016.6mb 51f 46f
12:48 8 9 mph 1016.5mb 51f 46f
12:42 8
mph
1016.5mb 51f 46f
12:36 7 9 mph 1016.4mb 51f 46f
12:30 7 8 mph 1016.4mb 51f 46f
12:24 8
mph
1016.4mb 51f 45f
12:18 7 9 mph 1016.4mb 50f 46f
12:12 7 8 mph 1016.4mb 50f 46f
12:06 7 9 mph 1016.4mb 50f 46f
12:00 8 10 mph 1016.4mb 50f 46f
Sa 05/02 11:54 8 10 mph 1016.4mb 50f 46f
11:48 9 10 mph 1016.4mb 50f 46f
11:42 7 9 mph 1016.5mb 50f 46f
11:36 8 10 mph 1016.5mb 49f 46f
11:30 8 9 mph 1016.5mb 49f 46f
11:24 8 10 mph 1016.5mb 49f 46f
11:18 8 9 mph 1016.4mb 49f 46f
11:12 8 10 mph 1016.4mb 49f 46f
11:06 9 10 mph 1016.4mb 49f 46f
11:00 8 11 mph 1016.3mb 49f 46f
10:54 10 11 mph 1016.4mb 49f 46f
10:48 10 11 mph 1016.4mb 49f 46f
10:42 9 10 mph 1016.4mb 49f 46f
10:36 8 10 mph 1016.4mb 49f 46f
10:30 8 10 mph 1016.3mb 49f 46f
10:24 9 11 mph 1016.3mb 49f 46f
10:18 8 10 mph 1016.3mb 49f 46f
10:12 8 9 mph 1016.3mb 49f 46f
10:06 7 9 mph 1016.3mb 49f 46f
10:00 8 9 mph 1016.3mb 49f 47f
9:54 8 9 mph 1016.3mb 49f 47f
9:48 9
mph
1016.2mb 49f 47f
9:42 8 10 mph 1016.1mb 49f 47f
9:36 9 10 mph 1016mb 50f 47f
9:30 9 10 mph 1015.9mb 50f 47f
9:24 9 10 mph 1015.9mb 50f 47f
9:18 9 11 mph 1015.9mb 50f 47f
9:12 9 11 mph 1016mb 50f 47f
9:06 9 11 mph 1016mb 50f 47f
9:00 11 13 mph 1016mb 51f 47f
8:54 10 13 mph 1016mb 51f 47f
8:48 10 13 mph 1015.9mb 51f 47f
8:42 10 13 mph 1015.8mb 51f 47f
8:36 10 13 mph 1015.8mb 51f 48f
8:30 11 13 mph 1015.8mb 52f 48f
8:24 11 13 mph 1015.7mb 52f 48f
8:18 11 14 mph 1015.6mb 52f 48f
8:12 14 16 mph 1015.6mb 52f 48f
8:06 14 16 mph 1015.5mb 52f 47f
8:00 15 16 mph 1015.5mb 52f 47f
7:54 15 17 mph 1015.4mb 52f 47f
7:48 16 18 mph 1015.3mb 52f 47f
7:42 17 18 mph 1015.3mb 52f 47f
7:36 15 17 mph 1015.2mb 52f 47f
7:30 16 17 mph 1015.1mb 52f 47f
7:24 15 17 mph 1015mb 52f 47f
7:18 15 16 mph 1015mb 52f 47f
7:12 15 16 mph 1015mb 52f 48f
7:06 15 16 mph 1014.9mb 52f 48f
7:00 14 15 mph 1014.8mb 52f 48f
6:54 14 15 mph 1014.8mb 52f 48f
6:48 14 15 mph 1014.6mb 52f 48f
6:42 14 15 mph 1014.5mb 52f 48f
6:36 14 16 mph 1014.5mb 52f 48f
6:30 14 15 mph 1014.5mb 52f 48f
6:24 14 16 mph 1014.4mb 52f 48f
6:18 14 16 mph 1014.5mb 52f 48f
6:12 15 16 mph 1014.4mb 52f 48f
6:06 15 16 mph 1014.4mb 52f 48f
6:00 15 16 mph 1014.4mb 52f 48f
5:54 15 16 mph 1014.4mb 52f 48f
5:48 16 17 mph 1014.4mb 52f 48f
5:42 14 16 mph 1014.4mb 52f 48f
5:36 15 16 mph 1014.4mb 52f 48f
5:30 15 16 mph 1014.4mb 52f 48f
5:24 14 16 mph 1014.4mb 52f 48f
5:18 14 15 mph 1014.4mb 52f 48f
5:12 14 16 mph 1014.3mb 52f 48f
5:06 15 16 mph 1014.3mb 52f 48f
5:00 15 17 mph 1014.2mb 51f 48f
4:54 15 17 mph 1014.2mb 51f 48f
4:48 15 17 mph 1014.1mb 51f 48f
4:42 16 17 mph 1014mb 51f 48f
4:36 15 17 mph 1014mb 51f 48f
4:30 15 16 mph 1013.9mb 51f 48f
4:24 15 16 mph 1014mb 51f 49f
4:18 14 17 mph 1014mb 51f 49f
4:12 16 17 mph 1014mb 51f 48f
4:06 17 20 mph 1014mb 51f 48f
4:00 17 20 mph 1014mb 51f 48f
3:54 16 20 mph 1014mb 51f 48f
3:48 15 17 mph 1014mb 51f 49f
3:42 13 16 mph 1014mb 51f 49f
3:36 13 15 mph 1014.1mb 51f 51f
3:30 13 14 mph 1014.1mb 51f 51f
3:24 11 14 mph 1014.1mb 51f 51f
3:18 14 15 mph 1014.1mb 51f 50f
3:12 14 16 mph 1014.1mb 51f 50f
3:06 14 16 mph 1014.2mb 51f 49f
3:00 15 16 mph 1014.2mb 50f 49f
2:54 14 16 mph 1014.3mb 50f 49f
2:48 14 16 mph 1014.3mb 50f 49f
2:42 14 16 mph 1014.4mb 50f 49f
2:36 14 15 mph 1014.4mb 50f 49f
2:30 14 15 mph 1014.4mb 50f 49f
2:24 14 15 mph 1014.5mb 50f 49f
2:18 14 15 mph 1014.5mb 50f 49f
2:12 14 15 mph 1014.5mb 50f 49f
2:06 14 15 mph 1014.6mb 50f 49f
2:00 14 16 mph 1014.6mb 50f 49f
1:54 14 16 mph 1014.6mb 50f 49f
1:48 14 15 mph 1014.7mb 50f 49f
1:42 14 15 mph 1014.7mb 50f 50f
1:36 14 15 mph 1014.8mb 50f 49f
1:30 14 15 mph 1014.8mb 50f 49f
1:24 14 15 mph 1014.9mb 50f 49f
1:18 14 16 mph 1015mb 50f 49f
1:12 13 16 mph 1015mb 50f 49f
1:06 15 16 mph 1015mb 50f 49f
1:00 15
mph
1015.1mb 50f 48f
12:54 14 15 mph 1015.1mb 50f 48f
12:48 11 13 mph 1015.1mb 49f 48f
12:42 9 10 mph 1015.2mb 49f 49f
12:36 8
mph
1015.3mb 49f 49f
12:30 7 8 mph 1015.3mb 49f 49f
12:24 8 9 mph 1015.4mb 49f 49f
12:18 8 10 mph 1015.4mb 49f 48f
12:12 9
mph
1015.5mb 49f 47f
12:06 6 9 mph 1015.5mb 49f 48f
12:00 3 6 mph 1015.6mb 49f 50f
11:54 2 3 mph 1015.6mb 49f 50f
11:48 2
mph
1015.6mb 49f 51f
11:42  -  1 mph 1015.7mb 49f 51f
11:36 1 2 mph 1015.7mb 49f 50f
11:30 2 3 mph 1015.7mb 49f 49f
11:24 2
mph
1015.7mb 49f 49f
11:18 1 2 mph 1015.7mb 49f 49f
11:12 1 2 mph 1015.7mb 49f 48f
11:06 2 3 mph 1015.7mb 49f 48f
11:00 3 5 mph 1015.7mb 49f 47f
10:54 5 6 mph 1015.7mb 49f 47f
10:48 5 6 mph 1015.7mb 49f 46f
10:42 5 6 mph 1015.7mb 49f 46f
10:36 6 7 mph 1015.6mb 49f 46f
10:30 6 7 mph 1015.6mb 49f 46f
10:24 6 7 mph 1015.7mb 49f 45f
10:18 6 8 mph 1015.7mb 49f 45f
10:12 7 8 mph 1015.7mb 49f 45f
10:06 7 9 mph 1015.7mb 49f 44f
10:00 7 8 mph 1015.6mb 49f 44f
9:54 7 8 mph 1015.6mb 49f 44f
9:48 7 9 mph 1015.6mb 49f 43f
9:42 7 9 mph 1015.6mb 49f 42f
9:36 6 8 mph 1015.7mb 49f 42f
9:30 8 9 mph 1015.7mb 49f 41f
9:24 7 8 mph 1015.7mb 49f 41f
9:18 6 8 mph 1015.8mb 49f 41f
9:12 7 9 mph 1015.8mb 49f 41f
9:06 7 10 mph 1015.8mb 49f 41f
9:00 6 8 mph 1015.9mb 49f 41f
8:54 6 8 mph 1015.9mb 49f 41f
8:48 7 8 mph 1015.9mb 49f 41f
8:42 5 7 mph 1016mb 49f 41f
8:36 6 8 mph 1016mb 49f 40f
8:30 6 9 mph 1016mb 49f 40f
8:24 7 9 mph 1016mb 49f 41f
8:18 6 9 mph 1015.9mb 49f 41f
8:12 7 10 mph 1015.9mb 49f 40f
8:06 7 10 mph 1015.9mb 49f 41f
8:00 7 9 mph 1015.9mb 49f 41f
7:54 6 9 mph 1015.9mb 49f 41f
7:48 6 8 mph 1015.9mb 49f 40f
7:42 7 9 mph 1015.9mb 49f 40f
7:36 6 9 mph 1015.9mb 49f 40f
7:30 6 7 mph 1015.8mb 49f 40f
7:24 7 9 mph 1015.8mb 49f 40f
7:18 6 8 mph 1015.8mb 49f 40f
7:12 7 8 mph 1015.7mb 49f 40f
7:06 5 6 mph 1015.8mb 49f 40f
7:00 6 8 mph 1015.8mb 49f 40f
6:54 6 10 mph 1015.8mb 49f 40f
6:48 6 8 mph 1015.7mb 49f 40f
6:42 8 10 mph 1015.7mb 49f 40f
6:36 7 8 mph 1015.7mb 49f 40f
6:30 6 9 mph 1015.6mb 49f 40f
6:24 8 9 mph 1015.6mb 49f 40f
6:18 7 8 mph 1015.5mb 49f 40f
6:12 6 7 mph 1015.4mb 49f 40f
6:06 7 8 mph 1015.4mb 49f 40f
6:00 3 8 mph 1015.4mb 49f 40f
5:54 7 9 mph 1015.3mb 49f 40f
5:48 6 8 mph 1015.2mb 49f 40f
5:42 7 9 mph 1015.1mb 49f 40f
5:36 6 9 mph 1015.1mb 49f 40f
5:30 8 9 mph 1015.1mb 49f 40f
5:24 7 8 mph 1015.1mb 49f 40f
5:18 7 8 mph 1015mb 49f 40f
5:12 6 7 mph 1015mb 49f 40f
5:06 7 8 mph 1015mb 49f 39f
5:00 6 8 mph 1015mb 49f 39f
4:54 7 8 mph 1014.9mb 49f 40f
4:48 6 9 mph 1014.9mb 49f 40f
4:42 7 8 mph 1014.9mb 49f 40f
4:36 8 9 mph 1014.8mb 49f 40f
4:30 7 8 mph 1014.9mb 49f 40f
4:24 7 10 mph 1014.9mb 49f 41f
4:18 7 9 mph 1014.9mb 49f 41f
4:12 6 7 mph 1014.9mb 49f 41f
4:06 5 6 mph 1014.9mb 49f 41f
4:00 5 6 mph 1014.9mb 49f 41f
3:54 3 6 mph 1014.8mb 49f 41f
3:48 5 8 mph 1014.7mb 49f 41f
3:42 6 7 mph 1014.7mb 49f 41f
3:36 6 7 mph 1014.6mb 49f 41f
3:30 5 8 mph 1014.6mb 50f 41f
3:24 5 9 mph 1014.6mb 50f 41f
3:18 6 8 mph 1014.6mb 50f 42f
3:12 6 7 mph 1014.5mb 49f 41f
3:06 6
mph
1014.5mb 49f 41f
3:00 5 6 mph 1014.5mb 49f 41f
2:54 6 7 mph 1014.5mb 49f 41f
2:48 6 7 mph 1014.6mb 49f 41f
2:42 6 7 mph 1014.7mb 49f 42f
2:36 5 7 mph 1014.6mb 49f 41f
2:30 6
mph
1014.6mb 49f 41f
2:24 6
mph
1014.6mb 49f 41f
2:18 6 7 mph 1014.6mb 49f 41f
2:12 6 7 mph 1014.6mb 49f 41f
2:06 6
mph
1014.7mb 49f 42f
2:00 6 7 mph 1014.8mb 49f 42f
1:54 5 6 mph 1014.8mb 49f 42f
1:48 5 6 mph 1014.8mb 49f 42f
1:42 5 7 mph 1014.9mb 49f 42f
1:36 6 7 mph 1014.9mb 49f 42f
1:30 6
mph
1014.9mb 49f 42f
1:24 5 6 mph 1014.9mb 49f 42f
1:18 5 7 mph 1015mb 49f 42f
1:12 6
mph
1015mb 49f 42f
1:06 6 7 mph 1015.1mb 49f 42f
1:00 5 6 mph 1015.2mb 49f 43f
12:54 6 8 mph 1015.2mb 49f 43f
12:48 6 8 mph 1015.2mb 49f 43f
12:42 7 8 mph 1015.2mb 49f 43f
12:36 7 8 mph 1015.2mb 49f 43f
12:30 5 6 mph 1015.1mb 49f 43f
12:24 5 7 mph 1015.2mb 49f 43f
12:18 6 7 mph 1015.2mb 49f 43f
12:12 6
mph
1015.3mb 49f 43f
12:06 6
mph
1015.3mb 49f 43f
12:00 6 7 mph 1015.3mb 49f 43f
Fr 05/01 11:54 5 6 mph 1015.3mb 49f 43f
11:48 5 6 mph 1015.3mb 49f 44f
11:42 6
mph
1015.2mb 49f 44f
11:36 6 7 mph 1015.1mb 49f 44f
11:30 6 7 mph 1015.1mb 49f 44f
11:24 6 7 mph 1015.1mb 49f 44f
11:18 6 7 mph 1015.1mb 49f 44f
11:12 6 7 mph 1015.2mb 49f 44f
11:06 6 8 mph 1015.2mb 49f 44f
11:00 7 8 mph 1015.2mb 49f 44f
10:54 6 8 mph 1015.2mb 49f 44f
10:48 7 8 mph 1015.2mb 49f 44f
10:42 7 8 mph 1015.3mb 49f 45f
10:36 7 9 mph 1015.3mb 49f 44f
10:30 8 9 mph 1015.2mb 49f 45f
10:24 8 10 mph 1015.2mb 49f 45f
10:18 10 11 mph 1015.3mb 49f 45f
10:12 10 11 mph 1015.2mb 49f 45f
10:06 10 11 mph 1015.3mb 49f 46f
10:00 8 9 mph 1015.3mb 49f 47f
9:54 9
mph
1015.3mb 49f 47f
9:48 7 8 mph 1015.4mb 49f 47f
9:42 7 9 mph 1015.3mb 49f 47f
9:36 7 8 mph 1015.2mb 49f 48f
9:30 8 9 mph 1015.2mb 49f 48f
9:24 9 10 mph 1015.1mb 49f 48f
9:18 9 10 mph 1015.1mb 49f 48f
9:12 8 9 mph 1015.1mb 49f 48f
9:06 9 10 mph 1015mb 49f 48f
9:00 9 10 mph 1015mb 49f 48f
8:54 9 10 mph 1015mb 49f 48f
8:48 8 9 mph 1015mb 49f 49f
8:42 7 8 mph 1014.9mb 49f 49f
8:36 7 8 mph 1014.8mb 49f 49f
8:30 8 9 mph 1014.7mb 49f 49f
8:24 8 9 mph 1014.7mb 49f 49f
8:18 8 9 mph 1014.8mb 49f 50f
8:12 8 9 mph 1014.7mb 49f 50f
8:06 8 10 mph 1014.7mb 49f 50f
8:00 10 13 mph 1014.6mb 49f 50f
7:54 11 14 mph 1014.6mb 49f 50f
7:48 14
mph
1014.5mb 49f 51f
7:42 13 14 mph 1014.4mb 49f 51f
7:36 11 13 mph 1014.4mb 49f 51f
7:30 11 13 mph 1014.4mb 49f 51f
7:24 13 14 mph 1014.3mb 49f 51f
7:18 11 14 mph 1014.1mb 49f 52f
7:12 13 15 mph 1014mb 49f 52f
7:06 14 16 mph 1013.9mb 49f 52f
7:00 14 16 mph 1013.8mb 49f 52f
6:54 14 16 mph 1013.8mb 49f 52f
6:48 14 17 mph 1013.7mb 49f 53f
6:42 14 17 mph 1013.6mb 49f 53f
6:36 13 16 mph 1013.6mb 49f 53f
6:30 14 16 mph 1013.5mb 49f 53f
6:24 13 16 mph 1013.5mb 49f 53f
6:18 14 16 mph 1013.5mb 49f 53f
6:12 14 16 mph 1013.5mb 49f 53f
6:06 11 14 mph 1013.4mb 49f 53f
6:00 13 14 mph 1013.4mb 49f 53f
5:54 11 15 mph 1013.3mb 49f 53f
5:48 11 15 mph 1013.3mb 49f 53f
5:42 14 16 mph 1013.3mb 49f 53f
5:36 11 14 mph 1013.3mb 49f 53f
5:30 11 16 mph 1013.3mb 49f 53f
5:24 14 16 mph 1013.3mb 49f 53f
5:18 11 14 mph 1013.3mb 49f 53f
5:12 10 14 mph 1013.4mb 49f 53f
5:06 8 10 mph 1013.5mb 49f 53f
5:00 9 11 mph 1013.6mb 49f 53f
4:54 10 13 mph 1013.6mb 49f 53f
4:48 9 11 mph 1013.7mb 49f 53f
4:42 6 8 mph 1013.7mb 49f 52f
4:36 7 8 mph 1013.8mb 49f 53f
4:30 7 10 mph 1013.8mb 49f 52f
4:24 8 9 mph 1013.9mb 49f 52f
4:18 8 9 mph 1013.9mb 49f 52f
4:12 8 10 mph 1014mb 49f 52f
4:06 8 9 mph 1014mb 50f 52f
4:00 9 11 mph 1014.1mb 50f 52f
3:54 8 9 mph 1014.1mb 50f 52f
3:48 7 8 mph 1014.1mb 50f 52f
3:42 6 8 mph 1014.2mb 50f 52f
3:36 7 8 mph 1014.2mb 50f 52f
3:30 7 9 mph 1014.3mb 50f 51f
3:24 8 9 mph 1014.4mb 50f 51f
3:18 8 10 mph 1014.3mb 49f 51f
3:12 7 11 mph 1014.4mb 49f 51f
3:06 9 10 mph 1014.4mb 49f 51f
3:00 7 9 mph 1014.5mb 49f 51f
2:54 10 11 mph 1014.5mb 49f 51f
2:48 10 13 mph 1014.5mb 49f 51f
2:42 9 10 mph 1014.6mb 49f 51f
2:36 6 8 mph 1014.7mb 49f 50f
2:30 6 7 mph 1014.7mb 49f 50f
2:24 6 7 mph 1014.7mb 49f 50f
2:18 7 8 mph 1014.8mb 49f 50f
2:12 7 8 mph 1014.8mb 49f 50f
2:06 8 9 mph 1014.8mb 49f 50f
2:00 6 7 mph 1015mb 49f 50f
1:54 6 7 mph 1015.1mb 49f 50f
1:48 6 9 mph 1015.1mb 49f 50f
1:42 8 9 mph 1015.1mb 49f 50f
1:36 8 10 mph 1015.1mb 48f 49f
1:30 9 10 mph 1015.1mb 48f 49f
1:24 8 9 mph 1015mb 48f 49f
1:18 8 9 mph 1015.1mb 48f 49f
1:12 7 9 mph 1015.1mb 48f 49f
1:06 7 9 mph 1015.2mb 48f 49f
1:00 9 10 mph 1015.2mb 48f 49f
12:54 8 10 mph 1015.2mb 48f 49f
12:48 10
mph
1015.1mb 48f 49f
12:42 8 9 mph 1015.1mb 48f 49f
12:36 7 9 mph 1015.2mb 48f 49f
12:30 8 9 mph 1015.1mb 48f 49f
12:24 8 9 mph 1015.2mb 48f 49f
12:18 8 9 mph 1015.2mb 48f 49f
12:12 9 10 mph 1015.1mb 48f 49f
12:06 8 10 mph 1015.2mb 48f 49f
12:00 7 9 mph 1015.2mb 48f 49f
11:54 8 10 mph 1015.2mb 48f 48f
11:48 10 13 mph 1015.3mb 48f 49f
11:42 11 13 mph 1015.3mb 48f 49f
11:36 13 14 mph 1015.3mb 48f 48f
11:30 11 14 mph 1015.2mb 48f 49f
11:24 13 14 mph 1015.1mb 48f 48f
11:18 11 15 mph 1015.2mb 48f 48f
11:12 14 15 mph 1015.2mb 48f 48f
11:06 14 15 mph 1015.2mb 48f 48f
11:00 14 16 mph 1015.2mb 48f 48f
10:54 13 16 mph 1015.1mb 48f 48f
10:48 13 15 mph 1015.1mb 48f 48f
10:42 13 17 mph 1015mb 48f 48f
10:36 11 15 mph 1015mb 48f 48f
10:30 13 16 mph 1014.9mb 48f 47f
10:24 14 17 mph 1014.8mb 48f 47f
10:18 15 17 mph 1014.8mb 48f 47f
10:12 14 18 mph 1014.7mb 48f 47f
10:06 16 17 mph 1014.7mb 48f 47f
10:00 11 15 mph 1014.8mb 48f 47f
9:54 13 16 mph 1014.8mb 48f 47f
9:48 14 17 mph 1014.8mb 48f 47f
9:42 13 16 mph 1014.8mb 48f 47f
9:36 14 17 mph 1014.8mb 48f 47f
9:30 16 18 mph 1014.8mb 48f 46f
9:24 15 17 mph 1014.9mb 48f 47f
9:18 15 17 mph 1014.9mb 48f 46f
9:12 14 18 mph 1014.9mb 48f 47f
9:06 15 17 mph 1014.8mb 48f 46f
9:00 16 18 mph 1014.8mb 48f 46f
8:54 15 20 mph 1014.8mb 48f 46f
8:48 14 17 mph 1014.8mb 48f 46f
8:42 13 15 mph 1014.8mb 48f 46f
8:36 14 16 mph 1014.9mb 48f 46f
8:30 11 15 mph 1014.9mb 48f 46f
8:24 11 15 mph 1014.9mb 48f 46f
8:18 14 17 mph 1014.9mb 48f 46f
8:12 13 15 mph 1014.8mb 48f 46f
8:06 13 15 mph 1014.9mb 49f 45f
8:00 13 15 mph 1014.9mb 49f 45f
7:54 13 16 mph 1014.9mb 49f 45f
7:48 10 14 mph 1014.8mb 49f 45f
7:42 10 15 mph 1014.8mb 49f 45f
7:36 11 13 mph 1014.7mb 49f 45f
7:30 10 14 mph 1014.7mb 49f 45f
7:24 10 13 mph 1014.7mb 49f 45f
7:18 11 14 mph 1014.8mb 49f 45f
7:12 10 13 mph 1014.8mb 49f 45f
7:06 9 13 mph 1014.9mb 49f 45f
7:00 10 13 mph 1014.9mb 49f 45f
6:54 11 14 mph 1014.8mb 49f 45f
6:48 9 11 mph 1014.7mb 49f 45f
6:42 10 13 mph 1014.6mb 49f 45f
6:36 10 13 mph 1014.6mb 49f 45f
6:30 11 14 mph 1014.5mb 49f 45f
6:24 10 13 mph 1014.4mb 49f 45f
6:18 11 14 mph 1014.4mb 49f 45f
6:12 11 14 mph 1014.3mb 49f 45f
6:06 10 13 mph 1014.2mb 49f 45f
6:00 11 14 mph 1014.1mb 49f 45f
5:54 9 14 mph 1014mb 49f 45f
5:48 11 13 mph 1014mb 49f 45f
5:42 10 13 mph 1014mb 49f 45f
5:36 10 14 mph 1014.1mb 49f 45f
5:30 11 13 mph 1014mb 49f 45f
5:24 9 13 mph 1014mb 49f 45f
5:18 9 13 mph 1013.9mb 49f 45f
5:12 9 11 mph 1013.9mb 49f 45f
5:06 10 15 mph 1013.8mb 49f 45f
5:00 10 13 mph 1013.8mb 49f 45f
4:54 9 11 mph 1013.7mb 49f 45f
4:48 9 11 mph 1013.7mb 49f 45f
4:42 9 11 mph 1013.6mb 49f 45f
4:36 9 11 mph 1013.6mb 49f 45f
4:30 8 10 mph 1013.6mb 49f 45f
4:24 9 11 mph 1013.6mb 49f 45f
4:18 10 13 mph 1013.6mb 49f 45f
4:12 10 11 mph 1013.6mb 49f 45f
4:06 11 14 mph 1013.7mb 49f 45f
4:00 13 14 mph 1013.8mb 49f 45f
3:54 10 14 mph 1013.8mb 49f 45f
3:48 13 15 mph 1013.7mb 49f 45f
3:42 14 15 mph 1013.7mb 49f 45f
3:36 14 15 mph 1013.7mb 49f 45f
3:30 14 15 mph 1013.6mb 49f 45f
3:24 14 16 mph 1013.5mb 49f 45f
3:18 13 17 mph 1013.5mb 49f 46f
3:12 15 17 mph 1013.4mb 49f 46f
3:06 16 18 mph 1013.3mb 49f 46f
3:00 15 18 mph 1013.3mb 49f 46f
2:54 16 18 mph 1013.2mb 49f 46f
2:48 14 16 mph 1013.2mb 49f 46f
2:42 13 14 mph 1013.3mb 49f 46f
2:36 13 15 mph 1013.3mb 49f 46f
2:30 15 17 mph 1013.3mb 49f 46f
2:24 15 16 mph 1013.3mb 49f 46f
2:18 14 15 mph 1013.4mb 49f 46f
2:12 14
mph
1013.4mb 49f 47f
2:06 10 11 mph 1013.4mb 49f 47f
2:00 11 14 mph 1013.5mb 49f 47f
1:54 13 14 mph 1013.5mb 49f 47f
1:48 10 11 mph 1013.6mb 49f 47f
1:42 9 10 mph 1013.6mb 49f 47f
1:36 8 10 mph 1013.6mb 49f 47f
1:30 9 10 mph 1013.6mb 49f 47f
1:24 9 11 mph 1013.6mb 49f 47f
1:18 10 11 mph 1013.6mb 49f 48f
1:12 10 11 mph 1013.6mb 49f 48f
1:06 11 14 mph 1013.6mb 49f 48f
1:00 11 13 mph 1013.6mb 49f 48f
12:54 10 11 mph 1013.5mb 49f 48f
12:48 9 10 mph 1013.5mb 49f 48f
12:42 9 13 mph 1013.5mb 49f 49f
12:36 11 13 mph 1013.6mb 49f 49f
12:30 10 11 mph 1013.7mb 49f 49f
12:24 8
mph
1013.7mb 49f 49f
12:18 2 5 mph 1013.6mb 49f 48f
12:12 3 5 mph 1013.5mb 49f 48f
12:06 5
mph
1013.5mb 49f 48f
12:00 5 6 mph 1013.5mb 49f 48f
Do 04/30 11:54 5
mph
1013.4mb 49f 48f
11:48 3 5 mph 1013.5mb 49f 48f
11:42 3 5 mph 1013.5mb 49f 48f
11:36 2 3 mph 1013.4mb 49f 48f
11:30 2 5 mph 1013.4mb 49f 48f
11:24 3
mph
1013.3mb 49f 48f
11:18 2 3 mph 1013.4mb 49f 48f
11:12 1 2 mph 1013.4mb 49f 48f
11:06  -  mph 1013.4mb 49f 48f
11:00  -  1 mph 1013.3mb 49f 48f
10:54  -  1 mph 1013.4mb 49f 48f
10:48  -  mph 1013.3mb 49f 48f
10:42  -  2 mph 1013.3mb 49f 48f
10:36 2 3 mph 1013.3mb 49f 48f
10:30 2 3 mph 1013.3mb 49f 48f
10:24 1 3 mph 1013.4mb 49f 48f
10:18 3 5 mph 1013.3mb 49f 48f
10:12 3 5 mph 1013.4mb 49f 48f
10:06 5
mph
1013.4mb 49f 48f
10:00 5 6 mph 1013.4mb 49f 48f
9:54 5 6 mph 1013.4mb 49f 48f
9:48 5 6 mph 1013.4mb 49f 48f
9:42 6
mph
1013.4mb 49f 48f
9:36 3 5 mph 1013.2mb 49f 48f
9:30 3 5 mph 1013.1mb 49f 48f
9:24 5 6 mph 1013.1mb 49f 48f
9:18 5 6 mph 1013mb 49f 48f
9:12 5 6 mph 1012.9mb 49f 48f
9:06 6
mph
1012.9mb 50f 48f
9:00 5 6 mph 1012.8mb 50f 48f
8:54 5 7 mph 1012.7mb 50f 48f
8:48 6 8 mph 1012.6mb 50f 48f
8:42 7 8 mph 1012.5mb 50f 48f
8:36 7 8 mph 1012.5mb 50f 49f
8:30 7 8 mph 1012.3mb 50f 49f
8:24 7
mph
1012.3mb 50f 49f
8:18 7
mph
1012.2mb 50f 49f
8:12 7 8 mph 1012.2mb 50f 49f
8:06 6 8 mph 1012.1mb 50f 49f
8:00 8
mph
1011.9mb 50f 49f
7:54 7 8 mph 1011.9mb 50f 49f
7:48 7 8 mph 1011.9mb 50f 48f
7:42 7 8 mph 1011.8mb 50f 48f
7:36 7 8 mph 1011.6mb 50f 49f
7:00 10 11 mph 1011.2mb 50f 49f
6:54 10 11 mph 1011.1mb 50f 49f
6:48 10 11 mph 1011.1mb 50f 49f
6:42 10 11 mph 1011mb 50f 49f
6:36 10 11 mph 1010.9mb 50f 49f
6:30 10 11 mph 1010.9mb 50f 49f
6:24 11 13 mph 1010.8mb 50f 50f
6:18 10 11 mph 1010.8mb 50f 50f
6:12 9 11 mph 1010.7mb 50f 50f
6:06 10 11 mph 1010.6mb 50f 50f
6:00 10 11 mph 1010.5mb 50f 49f
5:54 10 11 mph 1010.5mb 50f 49f
5:48 8 10 mph 1010.6mb 50f 50f
5:42 10
mph
1010.5mb 50f 49f
5:36 9 10 mph 1010.5mb 50f 49f
5:30 10 11 mph 1010.5mb 50f 49f
5:24 10 11 mph 1010.5mb 50f 49f
5:18 9 13 mph 1010.4mb 50f 50f
5:12 10 13 mph 1010.4mb 50f 50f
5:06 10 13 mph 1010.3mb 50f 50f
5:00 11 13 mph 1010.4mb 50f 49f
4:54 11 14 mph 1010.3mb 50f 49f
4:48 13 15 mph 1010.3mb 50f 49f
4:42 14 16 mph 1010.2mb 50f 49f
4:36 15 17 mph 1010.1mb 50f 49f
4:30 15 17 mph 1010.1mb 50f 49f
4:24 16 18 mph 1010mb 50f 49f
4:18 17 18 mph 1010mb 50f 49f
4:12 17 18 mph 1009.8mb 49f 49f
4:06 14 16 mph 1009.7mb 49f 49f
4:00 14 15 mph 1009.7mb 49f 50f
3:54 14
mph
1009.7mb 49f 51f
3:48 9 10 mph 1009.6mb 49f 51f
3:42 10 11 mph 1009.6mb 49f 52f
3:36 10 14 mph 1009.6mb 49f 52f
3:30 11 14 mph 1009.6mb 49f 52f
3:24 11 14 mph 1009.6mb 49f 52f
2:42 3 5 mph 1009.6mb 49f 56f
2:36 3
mph
1009.7mb 49f 56f
2:30 5
mph
1009.8mb 49f 55f
2:24 5 6 mph 1009.8mb 49f 55f
2:18 3 5 mph 1009.8mb 49f 55f
2:12 5 6 mph 1009.8mb 49f 55f
2:06 6 8 mph 1009.9mb 49f 55f
2:00 6 7 mph 1009.8mb 49f 55f
1:54 6 7 mph 1009.9mb 49f 54f
1:48 6 8 mph 1009.9mb 49f 54f
1:42 6 7 mph 1009.9mb 49f 54f
1:36 6 7 mph 1010mb 49f 53f
1:30 5 6 mph 1010mb 49f 53f
1:24 6 7 mph 1010mb 49f 53f
1:18 3 6 mph 1010.1mb 49f 53f
1:12 5 7 mph 1010.1mb 49f 52f
1:06 6 8 mph 1010.1mb 49f 52f
1:00 6 8 mph 1010.2mb 49f 52f
12:54 5 6 mph 1010.3mb 49f 52f
12:48 5 6 mph 1010.3mb 49f 51f
12:42 6 7 mph 1010.3mb 49f 51f
12:36 6 8 mph 1010.3mb 49f 51f
12:30 6 7 mph 1010.4mb 49f 51f
12:24 6 8 mph 1010.4mb 49f 51f
12:18 7
mph
1010.5mb 49f 51f
12:12 6 8 mph 1010.5mb 49f 51f
12:06 7 8 mph 1010.5mb 49f 51f
12:00 7 8 mph 1010.6mb 49f 51f
11:54 6 8 mph 1010.6mb 49f 50f
11:48 7 8 mph 1010.6mb 49f 50f
11:42 7 9 mph 1010.6mb 49f 50f
11:36 8 9 mph 1010.6mb 48f 50f
11:30 8 9 mph 1010.6mb 48f 50f
11:24 8 9 mph 1010.6mb 48f 50f
11:18 8 9 mph 1010.6mb 48f 50f
11:12 8 9 mph 1010.6mb 48f 50f
11:06 8 10 mph 1010.6mb 48f 50f
11:00 8 10 mph 1010.5mb 48f 49f
10:54 9 10 mph 1010.5mb 48f 50f
10:48 9 11 mph 1010.4mb 48f 50f
10:42 9 10 mph 1010.4mb 48f 50f
10:36 9 10 mph 1010.4mb 48f 49f
10:30 8 9 mph 1010.4mb 48f 49f
10:24 9 10 mph 1010.5mb 48f 49f
10:18 9 10 mph 1010.5mb 48f 49f
10:12 8 9 mph 1010.5mb 48f 49f
10:06 7 8 mph 1010.5mb 49f 49f
10:00 7 8 mph 1010.4mb 49f 49f
9:54 7 8 mph 1010.4mb 49f 49f
9:48 7 8 mph 1010.3mb 49f 49f
9:42 7 8 mph 1010.2mb 49f 49f
9:36 7 8 mph 1010.2mb 49f 49f
9:30 7 8 mph 1010.2mb 49f 48f
9:24 7 9 mph 1010.2mb 49f 48f
9:18 8 9 mph 1010.2mb 49f 48f
9:12 7 9 mph 1010.1mb 49f 48f
9:06 8 9 mph 1010.1mb 49f 48f
9:00 7 8 mph 1010mb 49f 48f
8:54 7 8 mph 1010mb 49f 48f
8:48 6 7 mph 1010mb 48f 48f
8:42 6 7 mph 1010mb 48f 47f
8:36 5 6 mph 1009.9mb 48f 47f
8:30 5 6 mph 1009.9mb 48f 47f
8:24 5 6 mph 1009.9mb 48f 47f
8:18 3 5 mph 1009.7mb 48f 47f
8:12 5
mph
1009.7mb 48f 47f
8:06 5 6 mph 1009.6mb 48f 46f
8:00 5
mph
1009.5mb 48f 46f
7:54 5 6 mph 1009.5mb 48f 46f
7:48 5
mph
1009.4mb 48f 46f
7:42 3
mph
1009.4mb 48f 46f
7:36 3
mph
1009.3mb 48f 46f
7:30 3 5 mph 1009.2mb 48f 46f
7:24 2 3 mph 1009.2mb 48f 46f
7:18 2 3 mph 1009.2mb 48f 46f
7:12 2 3 mph 1009.2mb 48f 45f
7:06 2 5 mph 1009.2mb 48f 45f
7:00 3
mph
1009.1mb 48f 45f
6:54 3 5 mph 1009.1mb 48f 45f
6:48 2 3 mph 1009.1mb 48f 44f
6:42 3 5 mph 1009mb 48f 44f
6:36 3 5 mph 1008.9mb 48f 44f
6:30 5 6 mph 1008.9mb 48f 44f
6:24 5
mph
1008.8mb 48f 44f
6:18 3 5 mph 1008.8mb 48f 44f
6:12 3 5 mph 1008.7mb 48f 44f
6:06 2 3 mph 1008.6mb 48f 43f
6:00 3 5 mph 1008.5mb 48f 43f
5:54 3
mph
1008.4mb 48f 43f
5:48 3 5 mph 1008.4mb 48f 43f
5:42 3 5 mph 1008.4mb 48f 43f
5:36 3
mph
1008.4mb 48f 43f
5:30 2 3 mph 1008.3mb 48f 43f
5:24 2 3 mph 1008.3mb 48f 43f
5:18 3 5 mph 1008.3mb 48f 43f
5:12 5 6 mph 1008.3mb 48f 43f
5:06 5 6 mph 1008.3mb 48f 44f
5:00 5 6 mph 1008.3mb 48f 44f
4:54 2
mph
1008.2mb 48f 44f
4:48 2 5 mph 1008.1mb 48f 43f
4:42 5
mph
1008mb 48f 43f
4:36 3 5 mph 1008mb 48f 44f
4:30 3
mph
1007.9mb 48f 44f
4:24 3
mph
1007.8mb 48f 44f
4:18 3
mph
1007.8mb 48f 44f
4:12 3 5 mph 1007.8mb 49f 44f
4:06 3 6 mph 1007.8mb 49f 44f
4:00 5 7 mph 1007.7mb 49f 44f
3:54 6
mph
1007.7mb 49f 44f
3:48 6
mph
1007.7mb 49f 44f
3:42 5 6 mph 1007.7mb 49f 44f
3:36 5 7 mph 1007.7mb 49f 44f
3:30 5 6 mph 1007.7mb 49f 45f
3:24 5
mph
1007.6mb 49f 45f
3:18 5 6 mph 1007.7mb 49f 44f
3:12 5 6 mph 1007.8mb 49f 44f
3:06 5 6 mph 1007.8mb 49f 44f
3:00 3 6 mph 1007.8mb 49f 44f
2:54 5 6 mph 1007.9mb 49f 44f
2:48 5 6 mph 1007.9mb 49f 44f
2:42 5 6 mph 1008mb 49f 44f
2:36 5 6 mph 1008mb 49f 44f
2:30 6
mph
1008mb 49f 44f
2:24 5
mph
1008mb 49f 45f
2:18  -  mph 1008mb 49f 45f
2:12  -  mph 1008mb 49f 45f
2:06  -  mph 1008mb 49f 45f
2:00 3 5 mph 1008.1mb 49f 45f
1:54 3
mph
1008.1mb 49f 46f
1:48 1 2 mph 1008.1mb 49f 46f
1:42 2 3 mph 1008.2mb 49f 46f
1:36 2 3 mph 1008.2mb 49f 46f
1:30 2 3 mph 1008.3mb 49f 46f
1:24 2 3 mph 1008.4mb 49f 46f
1:18 2 5 mph 1008.4mb 49f 46f
1:12 2 5 mph 1008.5mb 49f 46f
1:06 3 5 mph 1008.5mb 49f 46f
1:00 3 5 mph 1008.5mb 49f 46f